createdAt,value
2022-11-26T00:02:15.578Z,101596.44
2022-11-26T00:04:45.180Z,101595.69
2022-11-26T00:07:14.814Z,101595.72
2022-11-26T00:09:44.262Z,101601.94
2022-11-26T00:12:20.956Z,101610.72
2022-11-26T00:14:50.668Z,101609.78
2022-11-26T00:17:20.054Z,101611.63
2022-11-26T00:19:49.434Z,101609.97
2022-11-26T00:22:22.225Z,101609.97
2022-11-26T00:24:51.729Z,101617.75
2022-11-26T00:27:23.971Z,101614.25
2022-11-26T00:29:53.463Z,101630.81
2022-11-26T00:32:23.490Z,101630.75
2022-11-26T00:34:52.867Z,101636.06
2022-11-26T00:37:22.804Z,101643.94
2022-11-26T00:39:52.336Z,101638.75
2022-11-26T00:42:24.334Z,101640.50
2022-11-26T00:44:53.818Z,101642.31
2022-11-26T00:47:23.215Z,101642.34
2022-11-26T00:49:52.594Z,101644.97
2022-11-26T00:52:25.536Z,101644.97
2022-11-26T00:54:54.937Z,101651.09
2022-11-26T00:57:27.271Z,101658.13
2022-11-26T00:59:56.678Z,101661.66
2022-11-26T01:02:26.060Z,101660.78
2022-11-26T01:04:55.489Z,101667.75
2022-11-26T01:07:24.931Z,101670.19
2022-11-26T01:09:54.353Z,101674.66
2022-11-26T01:12:23.695Z,101687.88
2022-11-26T01:14:55.773Z,101693.13
2022-11-26T01:17:25.227Z,101686.97
2022-11-26T01:19:54.567Z,101687.75
2022-11-26T01:22:25.401Z,101692.94
2022-11-26T01:24:54.929Z,101692.97
2022-11-26T01:27:24.403Z,101687.75
2022-11-26T01:29:56.636Z,101693.88
2022-11-26T01:32:29.428Z,101695.63
2022-11-26T01:34:59.291Z,101700.84
2022-11-26T01:37:28.753Z,101700.94
2022-11-26T01:39:58.210Z,101702.66
2022-11-26T01:42:28.008Z,101707.94
2022-11-26T01:45:00.035Z,101709.78
2022-11-26T01:47:30.244Z,101708.97
2022-11-26T01:50:14.579Z,101709.00
2022-11-26T01:52:43.902Z,101702.94
2022-11-26T01:55:13.411Z,101705.53
2022-11-26T01:57:42.744Z,101706.38
2022-11-26T02:00:15.650Z,101709.09
2022-11-26T02:02:46.863Z,101706.47
2022-11-26T02:05:18.115Z,101705.66
2022-11-26T02:07:47.704Z,101718.75
2022-11-26T02:10:17.133Z,101710.94
2022-11-26T02:12:46.557Z,101706.59
2022-11-26T02:15:18.592Z,101704.81
2022-11-26T02:17:48.527Z,101710.91
2022-11-26T02:20:28.827Z,101704.81
2022-11-26T02:23:12.366Z,101704.84
2022-11-26T02:25:56.850Z,101706.69
2022-11-26T02:28:30.943Z,101701.34
2022-11-26T02:31:04.963Z,101704.84
2022-11-26T02:33:36.418Z,101697.97
2022-11-26T02:36:07.757Z,101710.19
2022-11-26T02:38:38.323Z,101697.13
2022-11-26T02:41:08.039Z,101698.84
2022-11-26T02:43:37.439Z,101703.28
2022-11-26T02:46:11.197Z,101706.84
2022-11-26T02:48:42.150Z,101703.41
2022-11-26T02:51:13.335Z,101708.78
2022-11-26T02:53:42.941Z,101706.16
2022-11-26T02:56:13.295Z,101688.78
2022-11-26T02:58:42.786Z,101693.09
2022-11-26T03:01:15.861Z,101697.50
2022-11-26T03:03:46.518Z,101690.59
2022-11-26T03:06:16.146Z,101697.63
2022-11-26T03:08:46.191Z,101691.53
2022-11-26T03:11:15.698Z,101690.63
2022-11-26T03:13:45.144Z,101702.00
2022-11-26T03:16:17.171Z,101702.06
2022-11-26T03:18:46.540Z,101704.69
2022-11-26T03:21:15.968Z,101713.44
2022-11-26T03:23:45.400Z,101717.81
2022-11-26T03:26:14.727Z,101712.59
2022-11-26T03:28:44.185Z,101725.69
2022-11-26T03:31:13.836Z,101718.69
2022-11-26T03:33:46.192Z,101718.63
2022-11-26T03:36:15.540Z,101714.25
2022-11-26T03:38:44.866Z,101716.00
2022-11-26T03:41:14.242Z,101721.19
2022-11-26T03:43:43.868Z,101721.25
2022-11-26T03:46:13.220Z,101730.03
2022-11-26T03:48:42.584Z,101736.19
2022-11-26T03:51:15.021Z,101739.66
2022-11-26T03:53:44.385Z,101744.03
2022-11-26T03:56:13.814Z,101744.91
2022-11-26T03:58:43.169Z,101744.97
2022-11-26T04:01:13.137Z,101762.41
2022-11-26T04:03:42.875Z,101754.56
2022-11-26T04:06:14.972Z,101761.53
2022-11-26T04:08:44.460Z,101778.09
2022-11-26T04:11:13.771Z,101781.59
2022-11-26T04:13:43.225Z,101785.06
2022-11-26T04:16:12.910Z,101787.69
2022-11-26T04:18:42.503Z,101794.66
2022-11-26T04:21:12.199Z,101785.97
2022-11-26T04:23:44.155Z,101793.81
2022-11-26T04:26:13.678Z,101796.41
2022-11-26T04:28:43.006Z,101799.94
2022-11-26T04:31:12.420Z,101796.41
2022-11-26T04:33:41.799Z,101801.66
2022-11-26T04:36:11.457Z,101807.75
2022-11-26T04:38:41.011Z,101810.38
2022-11-26T04:41:13.096Z,101809.50
2022-11-26T04:43:42.492Z,101816.47
2022-11-26T04:46:12.000Z,101815.59
2022-11-26T04:48:41.399Z,101819.97
2022-11-26T04:51:10.799Z,101828.66
2022-11-26T04:53:40.214Z,101834.75
2022-11-26T04:56:09.840Z,101838.25
2022-11-26T04:58:41.825Z,101839.97
2022-11-26T05:01:11.458Z,101843.44
2022-11-26T05:03:40.768Z,101847.81
2022-11-26T05:06:11.653Z,101847.78
2022-11-26T05:08:41.099Z,101846.91
2022-11-26T05:11:10.423Z,101842.56
2022-11-26T05:13:42.480Z,101845.16
2022-11-26T05:16:11.962Z,101837.34
2022-11-26T05:18:41.303Z,101842.56
2022-11-26T05:21:10.678Z,101851.25
2022-11-26T05:23:40.067Z,101844.31
2022-11-26T05:26:09.367Z,101838.22
2022-11-26T05:28:38.687Z,101845.16
2022-11-26T05:31:11.001Z,101847.78
2022-11-26T05:33:40.499Z,101853.84
2022-11-26T05:36:10.087Z,101839.06
2022-11-26T05:38:39.556Z,101856.50
2022-11-26T05:41:08.878Z,101853.91
2022-11-26T05:43:38.175Z,101851.28
2022-11-26T05:46:07.988Z,101846.06
2022-11-26T05:48:40.008Z,101853.06
2022-11-26T05:51:09.392Z,101866.13
2022-11-26T05:53:38.795Z,101864.38
2022-11-26T05:56:08.509Z,101878.31
2022-11-26T05:58:37.857Z,101881.78
2022-11-26T06:01:09.450Z,101879.16
2022-11-26T06:03:41.520Z,101878.28
2022-11-26T06:06:11.075Z,101873.06
2022-11-26T06:08:40.417Z,101879.16
2022-11-26T06:11:09.803Z,101874.81
2022-11-26T06:13:39.076Z,101874.84
2022-11-26T06:16:08.967Z,101872.22
2022-11-26T06:18:41.624Z,101873.94
2022-11-26T06:21:11.065Z,101880.06
2022-11-26T06:23:44.284Z,101875.69
2022-11-26T06:26:19.099Z,101879.19
2022-11-26T06:28:48.489Z,101874.81
2022-11-26T06:31:17.884Z,101879.16
2022-11-26T06:33:49.830Z,101890.44
2022-11-26T06:36:19.162Z,101879.13
2022-11-26T06:38:48.622Z,101878.22
2022-11-26T06:41:17.976Z,101886.97
2022-11-26T06:43:47.370Z,101890.47
2022-11-26T06:46:16.993Z,101888.72
2022-11-26T06:48:46.407Z,101890.47
2022-11-26T06:51:20.538Z,101897.44
2022-11-26T06:53:49.955Z,101904.34
2022-11-26T06:56:19.572Z,101911.28
2022-11-26T06:58:49.304Z,101906.94
2022-11-26T07:01:19.541Z,101901.66
2022-11-26T07:03:49.219Z,101899.94
2022-11-26T07:06:22.063Z,101901.75
2022-11-26T07:08:51.501Z,101900.91
2022-11-26T07:11:21.104Z,101903.50
2022-11-26T07:13:50.602Z,101903.47
2022-11-26T07:16:20.189Z,101911.31
2022-11-26T07:18:50.526Z,101913.06
2022-11-26T07:21:22.625Z,101918.31
2022-11-26T07:23:52.256Z,101909.56
2022-11-26T07:26:22.127Z,101925.22
2022-11-26T07:28:51.618Z,101926.97
2022-11-26T07:31:21.710Z,101933.06
2022-11-26T07:33:51.191Z,101940.91
2022-11-26T07:36:24.329Z,101938.31
2022-11-26T07:38:55.800Z,101948.72
2022-11-26T07:41:25.211Z,101946.97
2022-11-26T07:43:54.849Z,101947.84
2022-11-26T07:46:25.721Z,101947.84
2022-11-26T07:48:55.293Z,101953.97
2022-11-26T07:51:28.002Z,101950.53
2022-11-26T07:53:57.753Z,101952.25
2022-11-26T07:56:27.339Z,101958.38
2022-11-26T07:58:56.895Z,101958.38
2022-11-26T08:01:28.360Z,101962.78
2022-11-26T08:03:58.033Z,101956.75
2022-11-26T08:06:30.590Z,101956.78
2022-11-26T08:09:02.265Z,101961.16
2022-11-26T08:11:32.227Z,101958.53
2022-11-26T08:14:02.411Z,101952.44
2022-11-26T08:16:31.962Z,101951.56
2022-11-26T08:19:02.314Z,101954.19
2022-11-26T08:21:34.307Z,101950.69
2022-11-26T08:24:03.800Z,101949.81
2022-11-26T08:26:38.428Z,101947.19
2022-11-26T08:29:12.023Z,101954.19
2022-11-26T08:31:45.615Z,101960.28
2022-11-26T08:34:16.452Z,101957.63
2022-11-26T08:36:48.740Z,101955.84
2022-11-26T08:39:18.918Z,101970.69
2022-11-26T08:41:51.929Z,101968.06
2022-11-26T08:44:22.071Z,101968.09
2022-11-26T08:46:51.453Z,101973.31
2022-11-26T08:49:20.764Z,101979.41
2022-11-26T08:51:52.680Z,101971.59
2022-11-26T08:54:22.106Z,101974.19
2022-11-26T08:56:51.448Z,101983.81
2022-11-26T08:59:23.018Z,101969.81
2022-11-26T09:01:52.753Z,101970.69
2022-11-26T09:04:22.124Z,101972.44
2022-11-26T09:06:54.212Z,101972.41
2022-11-26T09:09:23.683Z,101978.50
2022-11-26T09:11:54.358Z,101975.88
2022-11-26T09:14:25.056Z,101979.34
2022-11-26T09:16:54.594Z,101984.56
2022-11-26T09:19:24.096Z,101988.03
2022-11-26T09:21:56.370Z,101993.22
2022-11-26T09:24:25.890Z,101994.97
2022-11-26T09:26:55.438Z,102004.59
2022-11-26T09:29:25.393Z,102001.94
2022-11-26T09:32:21.970Z,102000.13
2022-11-26T09:34:44.289Z,101998.31
2022-11-26T09:37:16.266Z,101991.28
2022-11-26T09:39:45.753Z,101988.63
2022-11-26T09:42:16.348Z,101993.81
2022-11-26T09:44:50.035Z,101999.03
2022-11-26T09:47:20.076Z,102005.13
2022-11-26T09:49:56.456Z,101998.03
2022-11-26T09:52:29.569Z,102005.88
2022-11-26T09:55:01.717Z,102007.53
2022-11-26T09:57:31.813Z,102001.38
2022-11-26T10:00:01.203Z,101990.84
2022-11-26T10:02:30.578Z,102003.81
2022-11-26T10:04:59.934Z,102000.28
2022-11-26T10:07:37.347Z,101996.78
2022-11-26T10:10:08.296Z,101995.91
2022-11-26T10:13:03.101Z,101996.69
2022-11-26T10:15:31.249Z,101994.88
2022-11-26T10:18:01.177Z,101993.94
2022-11-26T10:20:45.586Z,101997.34
2022-11-26T10:23:20.378Z,101989.34
2022-11-26T10:25:50.397Z,101991.84
2022-11-26T10:28:22.179Z,101987.50
2022-11-26T10:30:53.740Z,101991.78
2022-11-26T10:33:23.255Z,101987.31
2022-11-26T10:35:52.557Z,101990.78
2022-11-26T10:38:24.522Z,101992.47
2022-11-26T10:40:54.476Z,102008.28
2022-11-26T10:43:24.934Z,101996.03
2022-11-26T10:45:54.980Z,101992.53
2022-11-26T10:48:25.582Z,101999.53
2022-11-26T10:51:02.131Z,101996.88
2022-11-26T10:53:34.663Z,101995.84
2022-11-26T10:56:04.408Z,101998.31
2022-11-26T10:58:34.295Z,101985.94
2022-11-26T11:01:04.493Z,101985.78
2022-11-26T11:06:37.963Z,101993.50
2022-11-26T11:09:24.259Z,101988.25
2022-11-26T11:12:00.505Z,101982.94
2022-11-26T11:14:30.704Z,101985.66
2022-11-26T11:17:00.038Z,101972.31
2022-11-26T11:19:29.424Z,101973.97
2022-11-26T11:21:58.869Z,101968.81
2022-11-26T11:24:31.263Z,101964.22
2022-11-26T11:27:01.339Z,101960.53
2022-11-26T11:29:33.265Z,101964.84
2022-11-26T11:32:04.457Z,101968.22
2022-11-26T11:34:35.787Z,101976.25
2022-11-26T11:37:05.918Z,101966.59
2022-11-26T11:39:38.100Z,101960.50
2022-11-26T11:42:07.826Z,101973.50
2022-11-26T11:44:39.968Z,101964.63
2022-11-26T11:47:15.675Z,101962.91
2022-11-26T11:49:48.488Z,101969.78
2022-11-26T11:52:19.757Z,101966.44
2022-11-26T11:54:56.867Z,101968.03
2022-11-26T11:57:29.291Z,101969.69
2022-11-26T12:00:13.533Z,101979.44
2022-11-26T12:02:50.654Z,101967.00
2022-11-26T12:05:32.935Z,101967.81
2022-11-26T12:08:04.337Z,101966.91
2022-11-26T12:10:37.300Z,101969.59
2022-11-26T12:13:08.034Z,101972.28
2022-11-26T12:15:38.623Z,101971.44
2022-11-26T12:18:08.736Z,101973.06
2022-11-26T12:20:39.558Z,101973.03
2022-11-26T12:23:16.011Z,101963.50
2022-11-26T12:25:50.110Z,101965.28
2022-11-26T12:28:20.966Z,101954.72
2022-11-26T12:30:52.526Z,101961.88
2022-11-26T12:33:23.513Z,101970.66
2022-11-26T12:35:53.569Z,101967.91
2022-11-26T12:38:24.810Z,101965.31
2022-11-26T12:41:00.249Z,101974.00
2022-11-26T12:43:30.765Z,101971.38
2022-11-26T12:46:01.769Z,101967.19
2022-11-26T12:48:36.633Z,101970.69
2022-11-26T12:51:10.658Z,101967.16
2022-11-26T12:53:41.760Z,101968.81
2022-11-26T12:56:15.513Z,101973.31
2022-11-26T12:58:47.616Z,101971.56
2022-11-26T13:01:17.172Z,101977.66
2022-11-26T13:03:46.596Z,101965.38
2022-11-26T13:06:18.540Z,101963.63
2022-11-26T13:08:49.592Z,101959.38
2022-11-26T13:11:25.607Z,101964.69
2022-11-26T13:13:58.395Z,101965.53
2022-11-26T13:16:29.616Z,101961.13
2022-11-26T13:19:03.939Z,101969.16
2022-11-26T13:21:40.325Z,101967.53
2022-11-26T13:24:19.008Z,101963.22
2022-11-26T13:26:55.218Z,101963.22
2022-11-26T13:29:26.592Z,101958.94
2022-11-26T13:32:00.116Z,101965.94
2022-11-26T13:37:51.895Z,101954.41
2022-11-26T13:40:33.646Z,101950.91
2022-11-26T13:43:10.210Z,101958.00
2022-11-26T13:45:46.091Z,101949.25
2022-11-26T13:48:16.254Z,101947.31
2022-11-26T13:50:46.375Z,101943.00
2022-11-26T13:53:18.679Z,101944.75
2022-11-26T13:55:48.615Z,101940.34
2022-11-26T13:58:21.586Z,101934.19
2022-11-26T14:00:51.095Z,101937.69
2022-11-26T14:03:35.489Z,101925.44
2022-11-26T14:06:10.874Z,101923.63
2022-11-26T14:08:41.295Z,101920.81
2022-11-26T14:11:11.020Z,101919.94
2022-11-26T14:13:43.005Z,101922.47
2022-11-26T14:16:12.772Z,101921.59
2022-11-26T14:19:06.151Z,101914.25
2022-11-26T14:21:35.707Z,101907.97
2022-11-26T14:24:05.168Z,101908.63
2022-11-26T14:26:37.714Z,101911.25
2022-11-26T14:29:12.712Z,101896.38
2022-11-26T14:31:43.273Z,101897.44
2022-11-26T14:34:13.954Z,101895.88
2022-11-26T14:36:53.330Z,101901.16
2022-11-26T14:39:22.672Z,101894.16
2022-11-26T14:41:59.079Z,101895.97
2022-11-26T14:44:34.319Z,101900.41
2022-11-26T14:47:04.226Z,101908.47
2022-11-26T14:49:34.914Z,101907.72
2022-11-26T14:52:04.644Z,101898.94
2022-11-26T14:54:34.751Z,101905.97
2022-11-26T14:57:06.185Z,101902.47
2022-11-26T14:59:38.215Z,101892.97
2022-11-26T15:02:20.617Z,101904.41
2022-11-26T15:04:59.357Z,101891.34
2022-11-26T15:07:28.998Z,101897.53
2022-11-26T15:10:05.200Z,101897.63
2022-11-26T15:12:34.599Z,101903.84
2022-11-26T15:15:06.935Z,101900.41
2022-11-26T15:17:36.571Z,101909.19
2022-11-26T15:20:06.857Z,101900.53
2022-11-26T15:22:37.704Z,101903.28
2022-11-26T15:25:07.474Z,101899.00
2022-11-26T15:27:38.698Z,101902.53
2022-11-26T15:30:20.155Z,101901.75
2022-11-26T15:32:49.541Z,101911.53
2022-11-26T15:35:19.076Z,101912.41
2022-11-26T15:37:48.507Z,101913.38
2022-11-26T15:40:24.674Z,101909.16
2022-11-26T15:42:55.332Z,101920.44
2022-11-26T15:45:28.412Z,101919.63
2022-11-26T15:47:57.907Z,101920.50
2022-11-26T15:50:32.012Z,101914.44
2022-11-26T15:53:02.275Z,101916.22
2022-11-26T15:55:32.296Z,101904.84
2022-11-26T15:58:03.849Z,101910.97
2022-11-26T16:00:37.575Z,101910.09
2022-11-26T16:03:07.508Z,101905.81
2022-11-26T16:05:38.530Z,101904.06
2022-11-26T16:08:08.367Z,101910.19
2022-11-26T16:10:39.617Z,101909.34
2022-11-26T16:13:23.144Z,101916.44
2022-11-26T16:15:57.587Z,101908.59
2022-11-26T16:18:28.280Z,101907.75
2022-11-26T16:21:03.671Z,101899.00
2022-11-26T16:23:33.059Z,101892.88
2022-11-26T16:26:09.515Z,101896.50
2022-11-26T16:28:38.962Z,101893.00
2022-11-26T16:31:11.074Z,101888.69
2022-11-26T16:33:40.618Z,101888.69
2022-11-26T16:36:24.577Z,101893.09
2022-11-26T16:38:54.214Z,101894.84
2022-11-26T16:41:24.166Z,101901.03
2022-11-26T16:43:53.568Z,101895.78
2022-11-26T16:46:27.745Z,101896.72
2022-11-26T16:48:57.288Z,101899.34
2022-11-26T16:51:26.785Z,101900.19
2022-11-26T16:53:56.257Z,101904.56
2022-11-26T16:56:25.922Z,101894.06
2022-11-26T16:58:55.398Z,101895.75
2022-11-26T17:01:27.375Z,101895.81
2022-11-26T17:03:56.994Z,101899.41
2022-11-26T17:06:28.403Z,101909.09
2022-11-26T17:08:58.376Z,101911.78
2022-11-26T17:11:27.686Z,101903.00
2022-11-26T17:13:57.108Z,101913.53
2022-11-26T17:16:29.210Z,101912.63
2022-11-26T17:18:58.650Z,101911.78
2022-11-26T17:21:28.072Z,101911.81
2022-11-26T17:23:57.454Z,101914.47
2022-11-26T17:26:27.041Z,101913.56
2022-11-26T17:28:56.537Z,101920.59
2022-11-26T17:31:26.216Z,101917.09
2022-11-26T17:34:01.498Z,101908.31
2022-11-26T17:36:36.603Z,101915.28
2022-11-26T17:39:06.716Z,101917.09
2022-11-26T17:41:36.078Z,101904.88
2022-11-26T17:44:05.464Z,101914.59
2022-11-26T17:46:48.129Z,101906.69
2022-11-26T17:49:26.944Z,101902.34
2022-11-26T17:51:56.361Z,101903.25
2022-11-26T17:54:25.691Z,101894.50
2022-11-26T17:56:55.113Z,101889.31
2022-11-26T17:59:24.732Z,101891.97
2022-11-26T18:01:54.090Z,101881.47
2022-11-26T18:04:23.375Z,101881.47
2022-11-26T18:06:58.371Z,101872.72
2022-11-26T18:09:27.779Z,101871.00
2022-11-26T18:11:57.933Z,101873.66
2022-11-26T18:14:27.351Z,101870.19
2022-11-26T18:16:56.824Z,101871.06
2022-11-26T18:19:26.394Z,101869.31
2022-11-26T18:21:58.405Z,101871.97
2022-11-26T18:24:27.754Z,101872.03
2022-11-26T18:26:57.093Z,101873.75
2022-11-26T18:29:26.657Z,101868.50
2022-11-26T18:31:56.177Z,101872.03
2022-11-26T18:34:25.588Z,101871.19
2022-11-26T18:36:54.928Z,101874.72
2022-11-26T18:39:27.045Z,101881.69
2022-11-26T18:42:15.438Z,101865.97
2022-11-26T18:44:45.857Z,101871.19
2022-11-26T18:47:15.247Z,101882.56
2022-11-26T18:49:47.605Z,101876.41
2022-11-26T18:52:17.387Z,101873.84
2022-11-26T18:54:49.572Z,101865.09
2022-11-26T18:57:18.970Z,101863.34
2022-11-26T18:59:50.475Z,101870.38
2022-11-26T19:02:20.015Z,101867.78
2022-11-26T19:04:49.475Z,101864.28
2022-11-26T19:07:18.922Z,101858.16
2022-11-26T19:09:51.230Z,101864.25
2022-11-26T19:12:20.659Z,101857.22
2022-11-26T19:14:49.980Z,101860.81
2022-11-26T19:17:19.492Z,101859.06
2022-11-26T19:19:49.214Z,101856.50
2022-11-26T19:22:18.602Z,101867.84
2022-11-26T19:24:48.097Z,101859.97
2022-11-26T19:27:20.215Z,101856.53
2022-11-26T19:29:49.645Z,101853.06
2022-11-26T19:32:18.958Z,101853.06
2022-11-26T19:34:48.359Z,101850.44
2022-11-26T19:37:17.661Z,101839.13
2022-11-26T19:39:47.008Z,101833.94
2022-11-26T19:42:16.392Z,101841.84
2022-11-26T19:44:48.431Z,101856.72
2022-11-26T19:47:17.773Z,101852.38
2022-11-26T19:49:47.104Z,101843.66
2022-11-26T19:52:16.599Z,101843.66
2022-11-26T19:54:46.025Z,101841.03
2022-11-26T19:57:15.378Z,101853.34
2022-11-26T19:59:44.734Z,101852.44
2022-11-26T20:02:16.780Z,101851.63
2022-11-26T20:04:46.113Z,101842.91
2022-11-26T20:07:15.486Z,101852.53
2022-11-26T20:09:44.884Z,101834.19
2022-11-26T20:12:14.236Z,101839.47
2022-11-26T20:14:43.658Z,101838.56
2022-11-26T20:17:13.055Z,101842.94
2022-11-26T20:19:45.071Z,101842.94
2022-11-26T20:22:14.555Z,101838.59
2022-11-26T20:24:43.871Z,101839.47
2022-11-26T20:27:13.279Z,101848.22
2022-11-26T20:29:42.631Z,101852.63
2022-11-26T20:32:12.050Z,101859.66
2022-11-26T20:34:41.528Z,101866.66
2022-11-26T20:37:17.101Z,101880.59
2022-11-26T20:39:46.599Z,101873.59
2022-11-26T20:42:15.925Z,101865.72
2022-11-26T20:44:45.334Z,101864.06
2022-11-26T20:47:14.852Z,101876.28
2022-11-26T20:49:44.730Z,101885.00
2022-11-26T20:52:17.044Z,101884.19
2022-11-26T20:54:49.520Z,101885.94
2022-11-26T20:57:23.692Z,101885.94
2022-11-26T20:59:53.167Z,101896.47
2022-11-26T21:02:22.742Z,101894.69
2022-11-26T21:04:52.124Z,101882.47
2022-11-26T21:07:24.170Z,101885.09
2022-11-26T21:09:53.573Z,101882.44
2022-11-26T21:12:23.004Z,101878.13
2022-11-26T21:14:52.473Z,101882.47
2022-11-26T21:17:21.920Z,101888.56
2022-11-26T21:19:51.399Z,101884.16
2022-11-26T21:22:20.686Z,101882.50
2022-11-26T21:24:52.920Z,101882.47
2022-11-26T21:27:22.314Z,101875.53
2022-11-26T21:29:51.659Z,101876.38
2022-11-26T21:32:21.003Z,101877.22
2022-11-26T21:34:50.300Z,101872.84
2022-11-26T21:37:19.666Z,101870.22
2022-11-26T21:39:50.496Z,101864.16
2022-11-26T21:42:22.460Z,101871.09
2022-11-26T21:44:51.873Z,101865.91
2022-11-26T21:47:21.201Z,101865.94
2022-11-26T21:49:50.594Z,101853.72
2022-11-26T21:52:19.942Z,101851.09
2022-11-26T21:54:49.390Z,101845.00
2022-11-26T21:57:18.672Z,101836.28
2022-11-26T21:59:50.674Z,101824.94
2022-11-26T22:02:20.068Z,101818.81
2022-11-26T22:04:49.385Z,101807.44
2022-11-26T22:07:18.950Z,101795.16
2022-11-26T22:09:48.408Z,101788.22
2022-11-26T22:12:17.791Z,101782.06
2022-11-26T22:14:47.173Z,101776.78
2022-11-26T22:17:19.231Z,101762.81
2022-11-26T22:19:48.859Z,101760.13
2022-11-26T22:22:18.179Z,101756.63
2022-11-26T22:24:47.846Z,101759.25
2022-11-26T22:27:17.178Z,101749.66
2022-11-26T22:29:46.554Z,101746.97
2022-11-26T22:32:15.963Z,101750.47
2022-11-26T22:34:47.938Z,101749.63
2022-11-26T22:37:17.288Z,101752.28
2022-11-26T22:39:49.888Z,101753.13
2022-11-26T22:42:23.016Z,101745.28
2022-11-26T22:44:52.456Z,101736.50
2022-11-26T22:47:21.782Z,101737.38
2022-11-26T22:49:53.768Z,101720.75
2022-11-26T22:52:23.213Z,101719.94
2022-11-26T22:54:52.680Z,101719.03
2022-11-26T22:57:25.297Z,101722.47
2022-11-26T22:59:55.539Z,101727.69
2022-11-26T23:02:24.884Z,101726.81
2022-11-26T23:04:57.347Z,101728.63
2022-11-26T23:07:26.848Z,101736.50
2022-11-26T23:09:56.167Z,101739.16
2022-11-26T23:12:25.577Z,101744.41
2022-11-26T23:14:55.425Z,101746.09
2022-11-26T23:17:24.824Z,101733.84
2022-11-26T23:19:56.811Z,101736.50
2022-11-26T23:22:26.507Z,101744.38
2022-11-26T23:24:55.808Z,101738.25
2022-11-26T23:27:25.195Z,101731.31
2022-11-26T23:29:54.510Z,101723.47
2022-11-26T23:32:27.102Z,101715.59
2022-11-26T23:35:01.490Z,101703.44
2022-11-26T23:37:30.876Z,101697.28
2022-11-26T23:40:00.256Z,101700.81
2022-11-26T23:42:29.719Z,101701.72
2022-11-26T23:44:59.053Z,101703.44
2022-11-26T23:47:28.540Z,101698.19
2022-11-26T23:50:00.869Z,101706.94
2022-11-26T23:52:33.244Z,101697.44
2022-11-26T23:55:02.674Z,101688.75
2022-11-26T23:57:32.032Z,101673.91
